Time;durP1;ratioP1;P1;durP2;ratioP2;P2;SDS_P1;SDS_P2;PMS_P1;PMS_P2;Temp;Humidity;BMP_temperature;BMP_pressure;BME280_temperature;BME280_humidity;BME280_pressure;Samples;Min_cycle;Max_cycle;Signal;HPM_P1;HPM_P2
2023/01/19 00:00:51;;;;;;;0.30;0.30;;;;;;;20.22;27.87;93949.69;4989058;28;20585;-65
2023/01/19 00:03:18;;;;;;;0.20;0.20;;;;;;;19.95;28.38;93951.19;4988470;28;20477;-66
2023/01/19 00:05:45;;;;;;;0.20;0.20;;;;;;;19.37;29.17;93945.63;4989089;28;20456;-67
2023/01/19 00:08:16;;;;;;;1.50;1.23;;;;;;;19.71;28.57;93935.28;4988527;28;20450;-65
2023/01/19 00:10:48;;;;;;;1.53;1.30;;;;;;;20.03;27.46;93949.53;4988807;28;20454;-66
2023/01/19 00:13:15;;;;;;;0.03;0.03;;;;;;;19.64;27.77;93952.91;4988408;28;20489;-64
2023/01/19 00:15:44;;;;;;;0.47;0.47;;;;;;;20.17;27.67;93974.66;4988535;28;20446;-66
2023/01/19 00:18:11;;;;;;;1.30;1.13;;;;;;;20.18;27.78;93932.88;4988366;28;20461;-65
2023/01/19 00:20:40;;;;;;;1.50;1.10;;;;;;;20.53;27.32;93959.69;4988235;28;20448;-67
2023/01/19 00:23:08;;;;;;;2.77;1.87;;;;;;;19.95;27.46;93987.63;4988294;28;20464;-65
2023/01/19 00:25:41;;;;;;;4.33;0.87;;;;;;;20.28;27.79;93984.81;4988708;28;20880;-66
2023/01/19 00:28:13;;;;;;;6.07;2.63;;;;;;;20.01;28.17;93975.66;4987883;28;21015;-64
2023/01/19 00:30:41;;;;;;;0.67;0.67;;;;;;;20.02;28.09;93967.34;4986863;28;21038;-64
2023/01/19 00:33:08;;;;;;;0.70;0.70;;;;;;;19.72;28.25;93954.69;4988016;28;20973;-66
2023/01/19 00:35:35;;;;;;;0.17;0.17;;;;;;;19.65;28.32;93991.66;4988305;28;20449;-65
2023/01/19 00:38:02;;;;;;;0.47;0.47;;;;;;;19.85;28.07;93978.22;4988688;28;20473;-69
2023/01/19 00:40:29;;;;;;;2.90;1.60;;;;;;;20.77;27.26;93986.94;4988385;28;20456;-67
2023/01/19 00:42:56;;;;;;;2.20;1.23;;;;;;;20.68;27.33;93977.56;4987817;28;20551;-66
2023/01/19 00:45:23;;;;;;;0.10;0.10;;;;;;;20.39;27.89;93970.72;4988450;28;21042;-68
2023/01/19 00:47:56;;;;;;;1.17;1.10;;;;;;;20.14;27.82;93993.16;4987473;28;20453;-66
2023/01/19 00:50:24;;;;;;;3.80;1.37;;;;;;;20.22;27.78;93976.28;4990999;28;20547;-64
2023/01/19 00:52:52;;;;;;;1.27;0.93;;;;;;;20.10;28.44;93936.41;4992147;28;20492;-67
2023/01/19 00:55:19;;;;;;;2.40;1.00;;;;;;;20.42;27.59;93985.97;4991785;28;20472;-67
2023/01/19 00:57:46;;;;;;;1.00;0.63;;;;;;;20.84;27.26;93957.06;4991871;28;20542;-64
2023/01/19 01:00:15;;;;;;;0.20;0.20;;;;;;;21.17;26.84;93974.31;4991895;28;20484;-64
2023/01/19 01:02:43;;;;;;;0.60;0.60;;;;;;;21.15;26.74;93960.56;4990926;28;21023;-64
2023/01/19 01:05:11;;;;;;;0.47;0.47;;;;;;;19.55;28.20;93936.31;4990115;28;20803;-61
2023/01/19 01:07:39;;;;;;;0.63;0.43;;;;;;;20.81;27.16;93942.56;4991640;28;20488;-64
2023/01/19 01:10:07;;;;;;;8.00;2.47;;;;;;;21.31;26.60;93957.13;4987787;28;20461;-64
2023/01/19 01:12:35;;;;;;;0.40;0.40;;;;;;;21.52;26.31;93957.63;4991221;28;21050;-61
2023/01/19 01:15:04;;;;;;;0.37;0.37;;;;;;;20.98;26.68;93955.53;4991350;28;20449;-66
2023/01/19 01:17:31;;;;;;;0.43;0.43;;;;;;;21.27;26.10;93951.72;4991509;28;20549;-64
2023/01/19 01:19:58;;;;;;;0.10;0.10;;;;;;;21.10;26.17;93942.19;4991755;28;20448;-66
2023/01/19 01:22:26;;;;;;;0.10;0.10;;;;;;;20.89;26.88;93936.28;4991678;28;20477;-67
2023/01/19 01:24:52;;;;;;;15.20;1.57;;;;;;;20.79;27.02;93941.34;4990600;28;20528;-65
2023/01/19 01:27:19;;;;;;;0.57;0.57;;;;;;;20.66;26.65;93951.28;4991998;28;20492;-66
2023/01/19 01:29:46;;;;;;;0.27;0.27;;;;;;;20.86;26.52;93952.97;4990629;28;20558;-63
2023/01/19 01:32:14;;;;;;;0.27;0.27;;;;;;;21.11;26.41;93958.94;4991583;28;20473;-65
2023/01/19 01:34:41;;;;;;;3.10;1.67;;;;;;;20.61;27.18;93961.41;4990769;28;20453;-65
2023/01/19 01:37:08;;;;;;;0.97;0.97;;;;;;;19.48;27.72;93968.75;4991796;28;20445;-64
2023/01/19 01:39:35;;;;;;;0.97;0.97;;;;;;;20.54;26.69;93964.66;4990828;28;20442;-66
2023/01/19 01:42:07;;;;;;;0.20;0.20;;;;;;;20.38;26.76;93974.50;4980637;28;21023;-63
2023/01/19 01:45:06;;;;;;;1.90;1.07;;;;;;;20.73;26.26;93948.81;4990460;28;20544;-65
2023/01/19 01:47:43;;;;;;;1.23;0.93;;;;;;;20.56;26.75;93998.91;4986041;28;20940;-64
2023/01/19 01:50:25;;;;;;;1.37;1.27;;;;;;;21.66;25.29;93949.97;4990215;28;20445;-66
2023/01/19 01:52:56;;;;;;;0.93;0.77;;;;;;;20.75;26.25;93951.91;4990896;28;21098;-67
2023/01/19 01:55:38;;;;;;;0.67;0.67;;;;;;;20.33;26.64;93945.44;4990684;28;20446;-64
2023/01/19 01:58:08;;;;;;;0.30;0.30;;;;;;;21.62;25.50;93957.13;4991158;28;20941;-65
2023/01/19 02:03:24;;;;;;;0.50;0.50;;;;;;;21.54;25.28;93950.06;4990398;28;20477;-65
2023/01/19 02:05:56;;;;;;;33.30;3.40;;;;;;;21.65;25.25;93946.53;4990527;28;20476;-66
2023/01/19 02:14:07;;;;;;;0.83;0.67;;;;;;;21.56;25.20;93937.94;4981669;28;20489;-63
2023/01/19 02:16:36;;;;;;;0.73;0.70;;;;;;;20.25;26.26;93965.00;4990801;28;20441;-63
2023/01/19 02:19:11;;;;;;;0.00;0.00;;;;;;;20.32;26.50;93943.91;4990834;28;20950;-64
2023/01/19 02:22:00;;;;;;;0.47;0.47;;;;;;;20.84;25.84;93933.88;4989903;28;20503;-62
2023/01/19 02:24:28;;;;;;;0.70;0.70;;;;;;;21.03;25.83;93934.03;4990108;28;20480;-64
2023/01/19 02:26:55;;;;;;;1.23;0.80;;;;;;;20.97;25.69;93924.69;4990411;28;20442;-65
2023/01/19 02:29:25;;;;;;;16.33;2.30;;;;;;;20.46;26.33;93922.22;4990092;28;20457;-63
2023/01/19 02:31:53;;;;;;;0.10;0.10;;;;;;;21.10;25.19;93926.19;4989622;28;20501;-66
2023/01/19 02:34:21;;;;;;;0.70;0.70;;;;;;;21.18;25.28;93938.56;4990117;28;20553;-64
2023/01/19 02:36:55;;;;;;;1.23;0.77;;;;;;;20.36;26.14;93936.81;4990051;28;20441;-65
2023/01/19 02:39:33;;;;;;;0.10;0.10;;;;;;;20.76;25.67;93937.50;4990169;28;20615;-62
2023/01/19 02:42:10;;;;;;;0.30;0.30;;;;;;;20.34;26.06;93936.38;4985217;28;20492;-66
2023/01/19 02:44:38;;;;;;;1.17;0.43;;;;;;;20.40;26.07;93944.88;4989437;28;21202;-63
2023/01/19 02:47:05;;;;;;;2.73;0.43;;;;;;;20.15;26.24;93938.81;4990816;28;20481;-61
2023/01/19 02:49:32;;;;;;;20.07;2.53;;;;;;;20.86;25.62;93936.97;4989231;28;20457;-62
2023/01/19 02:51:59;;;;;;;0.20;0.20;;;;;;;20.83;25.16;93932.34;4990060;28;20445;-62
2023/01/19 02:54:29;;;;;;;2.43;1.20;;;;;;;20.90;25.36;93937.84;4989815;28;20788;-64
2023/01/19 02:57:17;;;;;;;0.20;0.20;;;;;;;20.28;26.15;93932.38;4990281;28;20465;-63
2023/01/19 03:00:11;;;;;;;0.50;0.50;;;;;;;20.16;26.19;93929.75;4980245;28;20465;-61
2023/01/19 03:03:06;;;;;;;0.77;0.77;;;;;;;20.66;25.60;93945.97;4989728;28;20488;-64
2023/01/19 03:05:45;;;;;;;0.10;0.10;;;;;;;20.87;25.72;93937.75;4989180;28;20560;-64
2023/01/19 03:08:31;;;;;;;0.30;0.30;;;;;;;20.41;25.92;93928.56;4990166;28;20454;-64
2023/01/19 03:11:04;;;;;;;7.63;1.60;;;;;;;20.01;26.36;93935.78;4988821;28;20987;-63
2023/01/19 03:13:49;;;;;;;1.80;1.43;;;;;;;21.34;24.83;93914.59;4988818;28;20457;-65
2023/01/19 03:16:28;;;;;;;1.50;1.37;;;;;;;19.50;26.52;93923.25;4988037;28;20450;-61
2023/01/19 03:19:02;;;;;;;7.10;1.50;;;;;;;19.90;26.41;93919.53;4977239;28;21247;-64
2023/01/19 03:21:34;;;;;;;0.23;0.23;;;;;;;20.24;26.40;93917.47;4989031;28;20448;-63
2023/01/19 03:24:05;;;;;;;0.47;0.47;;;;;;;20.53;25.53;93909.88;4988004;28;20991;-63
2023/01/19 03:26:37;;;;;;;0.20;0.20;;;;;;;20.03;25.95;93931.69;4988490;28;20450;-62
2023/01/19 03:29:07;;;;;;;0.10;0.10;;;;;;;19.34;26.56;93925.03;4989269;28;20909;-60
2023/01/19 03:31:36;;;;;;;0.87;0.87;;;;;;;20.97;25.28;93908.72;4988584;28;20528;-61
2023/01/19 03:34:06;;;;;;;2.90;2.40;;;;;;;20.09;26.27;93908.25;4989293;28;20995;-62
2023/01/19 03:36:42;;;;;;;6.17;3.00;;;;;;;19.77;26.78;93896.75;4988756;28;20446;-60
2023/01/19 03:39:11;;;;;;;0.90;0.50;;;;;;;20.16;26.19;93897.84;4988898;28;20457;-62
2023/01/19 03:41:40;;;;;;;0.10;0.10;;;;;;;20.37;25.91;93881.69;4988402;28;20547;-62
2023/01/19 03:44:10;;;;;;;0.00;0.00;;;;;;;19.30;27.36;93897.56;4989131;28;20465;-64
2023/01/19 03:46:39;;;;;;;0.10;0.10;;;;;;;19.44;26.86;93895.34;4988281;28;20457;-63
2023/01/19 03:49:07;;;;;;;0.43;0.43;;;;;;;19.19;26.80;93887.41;4988909;28;20442;-64
2023/01/19 03:51:36;;;;;;;6.30;1.47;;;;;;;19.92;25.80;93861.47;4988263;28;20450;-63
2023/01/19 03:54:08;;;;;;;1.03;0.87;;;;;;;19.52;26.55;93879.31;4988376;28;20493;-62
2023/01/19 03:56:35;;;;;;;4.87;2.70;;;;;;;19.43;26.77;93869.91;4987917;28;20489;-65
2023/01/19 03:59:04;;;;;;;4.43;1.90;;;;;;;20.21;25.61;93872.91;4988506;28;20460;-65
2023/01/19 04:01:31;;;;;;;0.20;0.20;;;;;;;19.93;25.64;93859.56;4987818;28;20446;-62
2023/01/19 04:03:58;;;;;;;4.93;1.47;;;;;;;19.20;26.53;93878.31;4989747;28;20484;-64
2023/01/19 04:06:25;;;;;;;0.30;0.30;;;;;;;19.44;26.28;93882.06;4987259;28;20500;-64
2023/01/19 04:08:52;;;;;;;1.30;1.13;;;;;;;19.42;26.45;93863.03;4989349;28;21034;-66
2023/01/19 04:11:19;;;;;;;21.43;2.23;;;;;;;19.19;26.48;93923.78;4987944;28;20982;-63
2023/01/19 04:13:46;;;;;;;0.13;0.13;;;;;;;19.67;25.86;93869.88;4989155;28;20445;-66
2023/01/19 04:16:18;;;;;;;1.60;0.70;;;;;;;19.10;26.48;93878.75;4988004;28;20556;-63
2023/01/19 04:18:46;;;;;;;1.80;1.07;;;;;;;19.49;25.86;93857.94;4988826;28;20446;-66
2023/01/19 04:21:13;;;;;;;2.07;1.03;;;;;;;19.69;25.65;93867.66;4988269;28;20497;-63
2023/01/19 04:23:40;;;;;;;1.13;0.77;;;;;;;20.42;25.04;93863.59;4988757;28;20847;-65
2023/01/19 04:26:07;;;;;;;0.33;0.33;;;;;;;20.14;25.25;93865.47;4988125;28;21072;-67
2023/01/19 04:28:38;;;;;;;1.90;1.77;;;;;;;19.20;25.74;93867.69;4989014;28;20511;-65
2023/01/19 04:31:05;;;;;;;0.10;0.10;;;;;;;19.22;25.88;93854.06;4987910;28;20548;-64
2023/01/19 04:33:33;;;;;;;10.23;6.07;;;;;;;19.14;25.84;93842.44;4988952;28;20461;-65
2023/01/19 04:36:00;;;;;;;1.70;1.60;;;;;;;19.62;25.56;93870.06;4988747;28;20488;-68
2023/01/19 04:38:27;;;;;;;1.03;0.97;;;;;;;20.15;25.11;93869.69;4988749;28;20453;-64
2023/01/19 04:40:54;;;;;;;5.93;3.20;;;;;;;20.15;24.93;93854.50;4988078;28;20516;-66
2023/01/19 04:43:22;;;;;;;1.70;1.57;;;;;;;20.06;24.84;93847.78;4988345;28;20550;-62
2023/01/19 04:45:49;;;;;;;2.40;1.70;;;;;;;20.18;24.63;93880.44;4987696;28;20456;-65
2023/01/19 04:48:17;;;;;;;2.60;1.70;;;;;;;20.39;24.53;93864.28;4982078;28;20493;-64
2023/01/19 04:50:44;;;;;;;4.13;1.53;;;;;;;20.10;24.77;93873.38;4987064;28;20458;-66
2023/01/19 04:53:12;;;;;;;0.77;0.67;;;;;;;20.73;24.08;93886.81;4988679;28;20886;-65
2023/01/19 04:55:39;;;;;;;8.50;2.13;;;;;;;20.52;24.22;93883.59;4987495;28;20537;-67
2023/01/19 04:58:07;;;;;;;4.67;2.30;;;;;;;20.05;24.85;93886.13;4988712;28;20441;-65
2023/01/19 05:00:34;;;;;;;0.57;0.57;;;;;;;21.02;23.55;93903.16;4984992;28;20454;-69
2023/01/19 05:03:01;;;;;;;2.67;1.60;;;;;;;19.90;24.45;93876.22;4986484;28;20564;-64
2023/01/19 05:05:28;;;;;;;3.30;2.13;;;;;;;19.46;24.76;93890.47;4984147;28;20456;-66
2023/01/19 05:07:55;;;;;;;0.60;0.60;;;;;;;20.21;24.21;93905.59;4988191;28;21026;-64
2023/01/19 05:10:22;;;;;;;1.40;0.87;;;;;;;20.45;24.24;93916.16;4988541;28;20556;-66
2023/01/19 05:12:50;;;;;;;5.10;2.30;;;;;;;20.23;24.09;93914.03;4989158;28;20515;-68
2023/01/19 05:15:17;;;;;;;1.50;1.07;;;;;;;20.02;24.37;93935.44;4988619;28;20454;-65
2023/01/19 05:17:44;;;;;;;0.50;0.50;;;;;;;20.30;24.24;93921.41;4988425;28;20488;-64
2023/01/19 05:20:11;;;;;;;0.73;0.73;;;;;;;19.94;24.04;93964.84;4988386;28;20460;-65
2023/01/19 05:22:47;;;;;;;0.43;0.43;;;;;;;20.03;24.51;93949.53;4987930;28;20493;-70
2023/01/19 05:25:14;;;;;;;2.13;0.70;;;;;;;19.83;24.59;93953.09;4988580;28;20453;-63
2023/01/19 05:27:40;;;;;;;6.60;2.00;;;;;;;20.45;23.71;93948.06;4989214;28;20464;-64
2023/01/19 05:30:08;;;;;;;1.17;1.03;;;;;;;20.45;23.87;93940.09;4988718;28;20450;-68
2023/01/19 05:32:35;;;;;;;31.47;2.53;;;;;;;20.51;23.86;93924.66;4989059;28;20453;-65
2023/01/19 05:35:02;;;;;;;1.50;1.07;;;;;;;19.98;24.29;93936.47;4988385;28;20460;-69
2023/01/19 05:37:31;;;;;;;1.13;1.07;;;;;;;19.25;25.00;93937.63;4991618;28;20507;-68
2023/01/19 05:39:58;;;;;;;2.67;1.33;;;;;;;20.34;24.02;93941.69;4991222;28;20505;-69
2023/01/19 05:42:25;;;;;;;0.97;0.97;;;;;;;20.43;24.11;93917.59;4991538;28;20477;-66
2023/01/19 05:44:52;;;;;;;0.77;0.77;;;;;;;20.09;24.13;93930.31;4991190;28;20467;-60
2023/01/19 05:47:18;;;;;;;2.07;1.70;;;;;;;19.54;24.63;93940.06;4991985;28;20544;-64
2023/01/19 05:49:45;;;;;;;1.33;1.23;;;;;;;19.84;24.27;93928.06;4990591;28;20537;-64
2023/01/19 05:52:12;;;;;;;3.13;2.43;;;;;;;19.77;24.32;93944.59;4989997;28;20473;-66
2023/01/19 05:54:39;;;;;;;1.63;1.43;;;;;;;19.73;24.45;93921.66;4989254;28;21027;-63
2023/01/19 05:57:06;;;;;;;0.57;0.57;;;;;;;20.22;24.01;93949.69;4990763;28;20457;-65
2023/01/19 05:59:33;;;;;;;15.90;3.80;;;;;;;20.07;24.10;93926.47;4977172;28;20449;-65
2023/01/19 06:02:00;;;;;;;8.13;3.73;;;;;;;19.71;24.28;93919.34;4989737;28;20507;-63
2023/01/19 06:04:27;;;;;;;1.70;0.73;;;;;;;19.94;24.09;93927.59;4990027;28;20438;-62
2023/01/19 06:06:53;;;;;;;0.77;0.50;;;;;;;20.43;23.62;93944.97;4990692;28;20477;-61
2023/01/19 06:09:20;;;;;;;9.47;2.10;;;;;;;20.33;23.82;93948.09;4991519;28;20453;-62
2023/01/19 06:11:47;;;;;;;0.40;0.40;;;;;;;20.48;23.53;93942.06;4990427;28;20921;-63
2023/01/19 06:14:14;;;;;;;8.70;1.93;;;;;;;19.91;24.02;93954.84;4991407;28;20454;-64
2023/01/19 06:16:41;;;;;;;1.30;1.20;;;;;;;19.81;24.23;93939.38;4990303;28;20469;-61
2023/01/19 06:19:08;;;;;;;1.50;1.23;;;;;;;20.60;23.19;93943.91;4991187;28;20552;-63
2023/01/19 06:21:35;;;;;;;2.33;1.90;;;;;;;19.68;24.02;93956.44;4991005;28;20442;-64
2023/01/19 06:24:02;;;;;;;3.10;1.80;;;;;;;19.47;24.57;93945.19;4990985;28;20543;-62
2023/01/19 06:26:29;;;;;;;0.53;0.53;;;;;;;19.62;24.09;93960.44;4990253;28;20441;-65
2023/01/19 06:28:56;;;;;;;0.90;0.73;;;;;;;20.08;24.08;93949.28;4989025;28;20446;-68
2023/01/19 06:31:23;;;;;;;0.33;0.33;;;;;;;20.08;23.60;93949.28;4988068;28;20481;-64
2023/01/19 06:33:50;;;;;;;1.13;1.13;;;;;;;19.89;23.91;93946.47;4988972;28;20442;-64
2023/01/19 06:36:17;;;;;;;0.77;0.47;;;;;;;20.25;23.12;93959.69;4988475;28;20450;-62
2023/01/19 06:38:43;;;;;;;0.80;0.70;;;;;;;19.65;24.02;93994.31;4989219;28;20441;-64
2023/01/19 06:41:11;;;;;;;0.90;0.90;;;;;;;19.84;23.93;93975.91;4988362;28;20823;-62
2023/01/19 06:43:37;;;;;;;3.30;2.23;;;;;;;19.95;23.94;93977.00;4990387;28;20485;-64
2023/01/19 06:46:04;;;;;;;4.60;2.63;;;;;;;20.12;23.16;94006.00;4990443;28;20484;-64
2023/01/19 06:48:31;;;;;;;0.30;0.30;;;;;;;19.93;23.50;93973.91;4990037;28;20510;-64
2023/01/19 06:50:58;;;;;;;33.57;3.97;;;;;;;20.53;23.14;94002.28;4989913;28;20441;-61
2023/01/19 06:53:27;;;;;;;8.27;0.80;;;;;;;20.71;22.64;94012.25;4990924;28;20480;-60
2023/01/19 06:56:01;;;;;;;6.20;2.37;;;;;;;20.26;22.72;94026.94;4990715;28;20885;-62
2023/01/19 06:58:30;;;;;;;4.63;2.43;;;;;;;20.29;22.74;94024.38;4991426;28;20438;-66
2023/01/19 07:01:02;;;;;;;4.23;1.57;;;;;;;20.30;22.78;94041.91;4989787;28;20497;-63
2023/01/19 07:03:29;;;;;;;1.13;0.97;;;;;;;20.04;23.21;94028.16;4990373;28;20481;-63
2023/01/19 07:05:56;;;;;;;4.20;2.17;;;;;;;20.22;23.12;94018.84;4977139;28;20495;-65
2023/01/19 07:08:23;;;;;;;0.97;0.97;;;;;;;20.75;22.47;94010.47;4990216;28;20453;-64
2023/01/19 07:10:50;;;;;;;4.87;2.37;;;;;;;21.04;22.37;93999.47;4989333;28;20445;-64
2023/01/19 07:13:38;;;;;;;2.17;1.90;;;;;;;20.63;22.67;94015.88;4990165;28;20913;-64
2023/01/19 07:16:08;;;;;;;3.50;2.77;;;;;;;20.90;22.44;94016.94;4989638;28;20445;-61
2023/01/19 07:18:36;;;;;;;1.30;1.13;;;;;;;20.50;22.62;94008.25;4989751;28;20978;-65
2023/01/19 07:21:04;;;;;;;4.43;2.63;;;;;;;21.31;21.56;94031.75;4989571;28;20448;-64
2023/01/19 07:23:31;;;;;;;0.57;0.57;;;;;;;20.50;22.54;93997.59;4989540;28;20495;-65
2023/01/19 07:26:00;;;;;;;1.50;1.27;;;;;;;20.76;22.03;93996.06;4989990;28;21041;-62
2023/01/19 07:28:28;;;;;;;0.20;0.20;;;;;;;21.07;22.02;94009.47;4989561;28;20475;-62
2023/01/19 07:30:55;;;;;;;0.20;0.20;;;;;;;20.76;21.98;93979.31;4989164;28;20532;-65
2023/01/19 07:33:23;;;;;;;0.80;0.80;;;;;;;21.08;21.82;94013.69;4989424;28;20561;-64
2023/01/19 07:35:51;;;;;;;0.60;0.60;;;;;;;20.78;22.18;94015.13;4989533;28;20445;-63
2023/01/19 07:38:18;;;;;;;1.27;1.17;;;;;;;21.11;22.06;93994.31;4989243;28;20528;-62
2023/01/19 07:40:45;;;;;;;3.10;1.50;;;;;;;20.79;22.30;94011.34;4989312;28;20536;-63
2023/01/19 07:43:13;;;;;;;2.03;1.47;;;;;;;20.75;21.68;94005.16;4989795;28;20488;-63
2023/01/19 07:45:40;;;;;;;11.13;1.90;;;;;;;20.98;21.85;94003.47;4989452;28;20878;-60
2023/01/19 07:48:07;;;;;;;0.37;0.37;;;;;;;20.76;21.97;94000.59;4989167;28;20910;-66
2023/01/19 07:50:33;;;;;;;11.43;2.17;;;;;;;20.46;22.34;94016.13;4989241;28;20882;-62
2023/01/19 07:53:05;;;;;;;0.20;0.20;;;;;;;20.66;21.92;94023.16;4989427;28;20438;-66
2023/01/19 07:55:31;;;;;;;9.60;2.53;;;;;;;20.71;21.80;94003.53;4988975;28;20477;-65
2023/01/19 07:57:59;;;;;;;2.00;0.70;;;;;;;20.91;21.60;94016.59;4989138;28;20472;-64
2023/01/19 08:00:25;;;;;;;3.30;1.77;;;;;;;21.47;21.13;94004.00;4988702;28;20489;-63
2023/01/19 08:02:58;;;;;;;5.83;2.53;;;;;;;21.69;21.12;94005.25;4989649;28;20560;-66
2023/01/19 08:05:30;;;;;;;2.10;1.40;;;;;;;21.30;21.04;94019.53;4989179;28;20485;-65
2023/01/19 08:07:59;;;;;;;1.50;1.20;;;;;;;20.94;21.36;93991.97;4989658;28;20449;-67
2023/01/19 08:10:27;;;;;;;9.13;2.03;;;;;;;20.99;21.79;94036.22;4989677;28;20477;-63
2023/01/19 08:12:54;;;;;;;4.50;2.33;;;;;;;21.45;21.23;93986.78;4989553;28;20450;-64
2023/01/19 08:15:23;;;;;;;25.37;2.43;;;;;;;21.20;21.61;94014.72;4988691;28;20540;-64
2023/01/19 08:17:55;;;;;;;1.40;1.30;;;;;;;21.43;21.50;94018.34;4989710;28;20957;-63
2023/01/19 08:20:22;;;;;;;4.07;2.43;;;;;;;20.92;21.19;94012.84;4988955;28;20541;-62
2023/01/19 08:22:49;;;;;;;7.43;2.80;;;;;;;21.50;21.34;93997.97;4989716;28;20956;-64
2023/01/19 08:25:15;;;;;;;1.60;1.50;;;;;;;21.38;21.65;94010.59;4988624;28;20461;-65
2023/01/19 08:27:43;;;;;;;0.80;0.80;;;;;;;21.23;21.18;94016.69;4989203;28;20466;-63
2023/01/19 08:30:10;;;;;;;2.50;2.30;;;;;;;21.44;21.12;94006.56;4988238;28;20453;-64
2023/01/19 08:32:37;;;;;;;33.00;3.60;;;;;;;21.51;21.41;94017.41;4988843;28;20536;-65
2023/01/19 08:35:05;;;;;;;0.27;0.27;;;;;;;22.35;20.45;93982.00;4988688;28;20918;-64
2023/01/19 08:37:31;;;;;;;9.80;1.87;;;;;;;21.76;21.09;94000.09;4989408;28;20448;-64
2023/01/19 08:39:59;;;;;;;32.13;3.37;;;;;;;21.31;21.20;94005.09;4988757;28;20449;-64
2023/01/19 08:42:26;;;;;;;0.67;0.67;;;;;;;21.45;21.29;94013.44;4989499;28;20441;-65
2023/01/19 08:44:53;;;;;;;4.80;1.80;;;;;;;21.13;21.16;94042.72;4987718;28;20474;-64
2023/01/19 08:47:24;;;;;;;6.37;2.27;;;;;;;22.34;20.53;94019.69;4989184;28;21096;-65
2023/01/19 08:49:51;;;;;;;3.57;2.80;;;;;;;22.17;20.88;94010.16;4988895;28;20803;-65
2023/01/19 08:52:18;;;;;;;4.83;2.23;;;;;;;21.88;20.96;94021.34;4989182;28;20446;-65
2023/01/19 08:54:44;;;;;;;1.30;1.23;;;;;;;21.47;21.48;94040.53;4989390;28;20775;-69
2023/01/19 08:57:11;;;;;;;5.70;3.40;;;;;;;21.97;21.27;94012.03;4988956;28;20521;-65
2023/01/19 08:59:38;;;;;;;7.00;1.80;;;;;;;22.33;20.93;94034.94;4988712;28;20449;-64
2023/01/19 09:02:05;;;;;;;0.40;0.40;;;;;;;21.50;21.17;93973.19;4989513;28;20533;-66
2023/01/19 09:04:33;;;;;;;1.90;1.40;;;;;;;22.25;20.77;94006.53;4988952;28;20507;-68
2023/01/19 09:07:00;;;;;;;0.47;0.47;;;;;;;21.91;21.01;94010.00;4989595;28;20446;-64
2023/01/19 09:09:26;;;;;;;0.80;0.80;;;;;;;22.46;20.54;94025.69;4989463;28;20457;-63
2023/01/19 09:11:54;;;;;;;0.13;0.13;;;;;;;22.34;20.71;94121.88;4991837;28;20489;-61
2023/01/19 09:14:21;;;;;;;4.13;3.10;;;;;;;22.50;20.17;94018.50;4993141;28;20478;-65
2023/01/19 09:16:48;;;;;;;0.60;0.60;;;;;;;22.47;20.41;94005.88;4992284;28;20537;-62
2023/01/19 09:19:15;;;;;;;0.93;0.87;;;;;;;22.96;20.32;93987.38;4992348;28;20532;-63
2023/01/19 09:21:41;;;;;;;1.90;1.17;;;;;;;22.07;20.93;93984.84;4991890;28;20445;-63
2023/01/19 09:24:08;;;;;;;1.23;1.00;;;;;;;23.53;20.14;93994.50;4992164;28;20483;-61
2023/01/19 09:26:35;;;;;;;21.43;1.53;;;;;;;22.74;20.34;93996.91;4991652;28;20442;-59
2023/01/19 09:29:02;;;;;;;0.93;0.60;;;;;;;23.05;20.10;93999.38;4992112;28;20205;-60
2023/01/19 09:31:29;;;;;;;7.87;2.60;;;;;;;23.09;20.05;94016.25;4991029;28;20520;-59
2023/01/19 09:33:56;;;;;;;3.10;1.33;;;;;;;23.70;19.81;94004.72;4992386;28;20519;-60
2023/01/19 09:36:23;;;;;;;1.13;1.03;;;;;;;22.40;20.56;94003.06;4991324;28;20528;-61
2023/01/19 09:38:50;;;;;;;5.40;2.30;;;;;;;22.70;20.43;94001.38;4991822;28;20226;-60
2023/01/19 09:41:20;;;;;;;0.10;0.10;;;;;;;22.98;20.60;93983.22;4991623;28;20457;-60
2023/01/19 09:43:55;;;;;;;0.50;0.50;;;;;;;22.61;20.43;93979.47;4991345;28;20281;-58
2023/01/19 09:46:38;;;;;;;7.07;2.03;;;;;;;23.37;20.37;94001.88;4991102;28;20205;-61
2023/01/19 09:49:10;;;;;;;5.73;2.50;;;;;;;22.32;20.94;94006.69;4991496;28;20290;-62
2023/01/19 09:51:40;;;;;;;10.33;2.07;;;;;;;23.61;20.08;93983.53;4991391;28;20199;-62
2023/01/19 09:54:13;;;;;;;3.00;2.73;;;;;;;23.09;20.28;93981.53;4991211;28;20261;-62
2023/01/19 09:56:41;;;;;;;2.43;1.83;;;;;;;23.28;20.55;93970.00;4991055;28;20578;-64
2023/01/19 09:59:24;;;;;;;1.03;0.67;;;;;;;23.24;19.84;93977.19;4991305;28;20222;-61
2023/01/19 10:02:19;;;;;;;1.43;1.03;;;;;;;24.01;19.75;93967.00;4990926;28;20462;-61
2023/01/19 10:05:05;;;;;;;1.17;0.93;;;;;;;23.77;19.41;93957.44;4990359;28;20496;-60
2023/01/19 10:07:52;;;;;;;1.43;1.33;;;;;;;23.55;19.73;93962.81;4991581;28;20496;-60
2023/01/19 10:10:20;;;;;;;2.13;1.50;;;;;;;23.53;19.87;93962.41;4990518;28;20385;-63
2023/01/19 10:13:10;;;;;;;34.07;1.53;;;;;;;23.06;20.18;94014.28;4991039;28;20202;-63
2023/01/19 10:15:48;;;;;;;0.20;0.20;;;;;;;22.92;20.43;93959.81;4986243;28;20226;-61
2023/01/19 10:18:33;;;;;;;0.37;0.37;;;;;;;23.57;19.98;93941.84;4991118;28;20207;-62
2023/01/19 10:21:11;;;;;;;8.03;0.53;;;;;;;22.21;21.09;93965.66;4990160;28;20234;-62
2023/01/19 10:23:53;;;;;;;0.20;0.20;;;;;;;23.22;20.63;93967.97;4990551;28;20832;-56
2023/01/19 10:26:33;;;;;;;0.40;0.40;;;;;;;24.25;19.90;93945.09;4990289;28;20561;-63
2023/01/19 10:29:10;;;;;;;1.40;0.80;;;;;;;22.82;20.83;93961.19;4979951;28;20198;-58
2023/01/19 10:31:41;;;;;;;0.40;0.40;;;;;;;22.72;20.93;93951.06;4990317;28;20230;-60
2023/01/19 10:34:16;;;;;;;0.30;0.30;;;;;;;22.19;21.30;93980.50;4990928;28;20445;-61
2023/01/19 10:36:52;;;;;;;0.20;0.20;;;;;;;21.73;21.77;93969.53;4990648;28;20205;-60
2023/01/19 10:39:19;;;;;;;0.43;0.43;;;;;;;22.21;21.28;93963.00;4990910;28;20198;-61
2023/01/19 10:41:52;;;;;;;1.60;0.90;;;;;;;22.33;21.17;93965.53;4990436;28;20605;-61
2023/01/19 10:44:24;;;;;;;0.53;0.53;;;;;;;21.73;21.85;93966.13;4990445;28;20489;-61
2023/01/19 10:46:54;;;;;;;0.43;0.43;;;;;;;22.08;21.29;93953.56;4990323;28;20481;-62
2023/01/19 10:49:25;;;;;;;1.53;0.97;;;;;;;22.11;21.13;93939.53;4990683;28;20442;-60
2023/01/19 10:51:54;;;;;;;1.70;0.90;;;;;;;22.35;21.10;93941.94;4990435;28;20797;-61
2023/01/19 10:54:22;;;;;;;0.20;0.20;;;;;;;22.50;21.04;93933.06;4990519;28;20810;-63
2023/01/19 10:57:02;;;;;;;1.57;1.47;;;;;;;22.72;21.10;93934.25;4990189;28;20541;-62
2023/01/19 10:59:32;;;;;;;0.10;0.10;;;;;;;22.67;21.11;93932.66;4990457;28;20306;-61
2023/01/19 11:02:20;;;;;;;2.03;1.33;;;;;;;22.55;20.52;93914.16;4990113;28;21010;-59
2023/01/19 11:04:51;;;;;;;0.50;0.50;;;;;;;22.90;20.56;93936.13;4989874;28;20493;-57
2023/01/19 11:07:25;;;;;;;0.10;0.10;;;;;;;22.63;21.08;93942.50;4990701;28;20583;-63
2023/01/19 11:10:20;;;;;;;1.17;1.07;;;;;;;22.65;21.58;93948.28;4989943;28;20540;-62
2023/01/19 11:12:59;;;;;;;4.33;1.17;;;;;;;22.45;21.81;93957.38;4991815;28;20459;-60
2023/01/19 11:15:48;;;;;;;5.00;3.03;;;;;;;22.19;21.57;93989.25;4989767;28;20457;-61
2023/01/19 11:18:35;;;;;;;0.20;0.20;;;;;;;21.98;22.02;93943.47;4990315;28;20450;-63
2023/01/19 11:21:05;;;;;;;0.53;0.53;;;;;;;21.92;22.12;93926.19;4990048;28;20459;-61
2023/01/19 11:23:40;;;;;;;4.03;2.77;;;;;;;22.32;21.67;93926.63;4989584;28;20442;-60
2023/01/19 11:26:28;;;;;;;0.97;0.97;;;;;;;21.42;22.17;93931.50;4989123;28;20492;-63
2023/01/19 11:28:57;;;;;;;0.40;0.40;;;;;;;22.11;21.71;93900.31;4990392;28;20449;-62
2023/01/19 11:31:27;;;;;;;1.13;0.93;;;;;;;21.37;22.27;93929.13;4988990;28;20568;-59
2023/01/19 11:33:59;;;;;;;0.10;0.10;;;;;;;21.56;22.02;93931.84;4988657;28;20797;-66
2023/01/19 11:36:33;;;;;;;0.17;0.17;;;;;;;23.50;20.66;93901.63;4988930;28;20456;-63
2023/01/19 11:39:26;;;;;;;0.10;0.10;;;;;;;21.48;21.47;93968.22;4989705;28;20544;-60
2023/01/19 11:42:00;;;;;;;0.10;0.10;;;;;;;21.89;21.70;93908.22;4976846;28;20438;-61
2023/01/19 11:44:33;;;;;;;0.30;0.30;;;;;;;23.05;20.92;93915.78;4989867;28;20481;-60
2023/01/19 11:47:11;;;;;;;11.77;2.47;;;;;;;23.01;20.38;93915.72;4989381;28;20496;-63
2023/01/19 11:49:46;;;;;;;1.40;1.13;;;;;;;21.93;21.28;93891.16;4988866;28;20478;-66
2023/01/19 11:52:26;;;;;;;0.10;0.10;;;;;;;22.15;20.92;93892.38;4989383;28;20463;-62
2023/01/19 11:55:17;;;;;;;0.20;0.20;;;;;;;22.28;20.90;93920.44;4977689;28;20467;-61
2023/01/19 11:57:47;;;;;;;0.40;0.40;;;;;;;22.63;20.88;93905.13;4989067;28;20529;-63